Time;durP1;ratioP1;P1;durP2;ratioP2;P2;SDS_P1;SDS_P2;PMS_P1;PMS_P2;Temp;Humidity;BMP_temperature;BMP_pressure;BME280_temperature;BME280_humidity;BME280_pressure;Samples;Min_cycle;Max_cycle;Signal;HPM_P1;HPM_P2
2023/01/26 00:00:31;;;;;;;1.52;0.90;;;;;;;;;;4974292;28;20033;-78
2023/01/26 00:02:57;;;;;;;2.40;1.00;;;;;;;;;;4979840;28;20045;-78
2023/01/26 00:05:23;;;;;;;2.88;1.42;;;;;;;;;;4974520;28;20081;-78
2023/01/26 00:07:50;;;;;;;1.75;0.90;;;;;;;;;;4974085;28;20328;-79
2023/01/26 00:10:16;;;;;;;2.03;1.00;;;;;;;;;;4979730;28;20514;-82
2023/01/26 00:12:42;;;;;;;1.70;1.10;;;;;;;;;;4981478;28;20018;-77
2023/01/26 00:15:08;;;;;;;2.13;1.30;;;;;;;;;;4983276;28;20093;-77
2023/01/26 00:17:37;;;;;;;2.00;1.20;;;;;;;;;;4976556;28;20026;-76
2023/01/26 00:20:03;;;;;;;2.45;1.20;;;;;;;;;;4977635;28;20034;-76
2023/01/26 00:22:29;;;;;;;3.65;1.20;;;;;;;;;;4979212;28;20036;-76
2023/01/26 00:24:55;;;;;;;2.78;1.23;;;;;;;;;;4981993;28;20096;-77
2023/01/26 00:27:21;;;;;;;1.52;0.90;;;;;;;;;;4981620;28;20054;-77
2023/01/26 00:29:48;;;;;;;2.88;0.80;;;;;;;;;;4984363;28;20483;-76
2023/01/26 00:32:14;;;;;;;1.30;0.50;;;;;;;;;;4982123;28;20073;-77
2023/01/26 00:34:40;;;;;;;1.55;0.55;;;;;;;;;;4983665;28;20036;-75
2023/01/26 00:37:06;;;;;;;0.95;0.60;;;;;;;;;;4980568;28;20029;-74
2023/01/26 00:39:32;;;;;;;1.48;0.50;;;;;;;;;;4974931;28;20101;-77
2023/01/26 00:42:12;;;;;;;3.97;1.48;;;;;;;;;;4977281;28;20626;-78
2023/01/26 00:44:39;;;;;;;4.05;1.63;;;;;;;;;;4978253;28;20022;-74
2023/01/26 00:47:06;;;;;;;6.05;2.60;;;;;;;;;;4981126;28;20057;-77
2023/01/26 00:49:32;;;;;;;6.32;2.70;;;;;;;;;;4973686;28;20030;-76
2023/01/26 00:51:59;;;;;;;7.68;3.50;;;;;;;;;;4977841;28;20043;-77
2023/01/26 00:54:25;;;;;;;9.40;3.92;;;;;;;;;;4980256;28;20027;-78
2023/01/26 00:56:51;;;;;;;6.88;3.33;;;;;;;;;;4978431;28;20558;-77
2023/01/26 00:59:17;;;;;;;6.97;2.40;;;;;;;;;;4977597;28;20062;-76
2023/01/26 01:01:44;;;;;;;2.38;1.20;;;;;;;;;;4975898;28;20604;-77
2023/01/26 01:04:10;;;;;;;2.45;1.10;;;;;;;;;;4972286;28;20030;-78
2023/01/26 01:06:36;;;;;;;1.95;1.08;;;;;;;;;;4973074;28;20046;-75
2023/01/26 01:09:03;;;;;;;4.00;0.93;;;;;;;;;;4979307;28;20042;-77
2023/01/26 01:11:29;;;;;;;0.75;0.45;;;;;;;;;;4974455;28;21372;-76
2023/01/26 01:13:55;;;;;;;1.40;0.60;;;;;;;;;;4977516;28;20064;-77
2023/01/26 01:16:21;;;;;;;0.98;0.60;;;;;;;;;;4977749;28;20038;-76
2023/01/26 01:18:47;;;;;;;0.60;0.57;;;;;;;;;;4977668;28;20038;-76
2023/01/26 01:21:15;;;;;;;2.25;0.60;;;;;;;;;;4972677;28;20030;-77
2023/01/26 01:23:41;;;;;;;1.73;1.00;;;;;;;;;;4977791;28;20053;-76
2023/01/26 01:26:07;;;;;;;4.88;1.67;;;;;;;;;;4980750;28;20030;-75
2023/01/26 01:28:34;;;;;;;2.58;1.08;;;;;;;;;;4974025;28;20029;-76
2023/01/26 01:31:03;;;;;;;4.20;1.52;;;;;;;;;;4974436;28;20023;-78
2023/01/26 01:33:29;;;;;;;9.05;1.50;;;;;;;;;;4980267;28;20117;-75
2023/01/26 01:35:56;;;;;;;3.85;1.25;;;;;;;;;;4977321;28;20022;-77
2023/01/26 01:38:23;;;;;;;4.35;1.30;;;;;;;;;;4973476;28;20040;-75
2023/01/26 01:40:49;;;;;;;2.17;1.23;;;;;;;;;;4977593;28;20058;-75
2023/01/26 01:43:15;;;;;;;2.13;1.00;;;;;;;;;;4979117;28;20054;-75
2023/01/26 01:45:43;;;;;;;2.78;1.05;;;;;;;;;;4978765;28;20413;-76
2023/01/26 01:48:13;;;;;;;2.55;1.30;;;;;;;;;;4978066;28;20026;-77
2023/01/26 01:50:39;;;;;;;2.58;1.10;;;;;;;;;;4976031;28;20161;-77
2023/01/26 01:53:07;;;;;;;4.47;1.45;;;;;;;;;;4982513;28;21629;-78
2023/01/26 01:55:34;;;;;;;3.20;1.33;;;;;;;;;;4975295;28;20023;-75
2023/01/26 01:58:01;;;;;;;2.03;0.98;;;;;;;;;;4979765;28;20038;-77
2023/01/26 02:00:27;;;;;;;2.90;1.25;;;;;;;;;;4975870;28;20064;-75
2023/01/26 02:03:20;;;;;;;2.80;1.55;;;;;;;;;;4975479;28;20780;-76
2023/01/26 02:05:53;;;;;;;1.58;1.02;;;;;;;;;;4979221;28;20049;-76
2023/01/26 02:08:19;;;;;;;;;;;;;;;;;;4980353;28;20110;-77
2023/01/26 02:10:47;;;;;;;2.22;1.00;;;;;;;;;;4973679;28;20651;-75
2023/01/26 02:13:15;;;;;;;5.53;1.40;;;;;;;;;;4978679;28;20141;-74
2023/01/26 02:15:43;;;;;;;5.20;1.60;;;;;;;;;;4978805;28;20030;-74
2023/01/26 02:18:10;;;;;;;7.10;1.42;;;;;;;;;;4982740;28;20022;-73
2023/01/26 02:20:45;;;;;;;3.10;1.30;;;;;;;;;;4982627;28;20105;-75
2023/01/26 02:23:25;;;;;;;2.28;1.27;;;;;;;;;;4975536;28;20042;-74
2023/01/26 02:25:51;;;;;;;3.50;1.50;;;;;;;;;;4972884;28;20034;-74
2023/01/26 02:28:19;;;;;;;3.00;1.75;;;;;;;;;;4979312;28;20030;-73
2023/01/26 02:30:45;;;;;;;2.78;1.50;;;;;;;;;;4979372;28;20030;-74
2023/01/26 02:33:17;;;;;;;4.30;1.60;;;;;;;;;;4981429;28;20018;-74
2023/01/26 02:35:43;;;;;;;2.35;1.30;;;;;;;;;;4977336;28;20034;-74
2023/01/26 02:38:09;;;;;;;2.97;1.42;;;;;;;;;;4978813;28;20064;-74
2023/01/26 02:40:43;;;;;;;2.65;1.40;;;;;;;;;;4983539;28;20037;-76
2023/01/26 02:43:09;;;;;;;2.83;1.83;;;;;;;;;;4980068;28;20033;-74
2023/01/26 02:45:35;;;;;;;3.22;1.90;;;;;;;;;;4983616;28;20256;-76
2023/01/26 02:48:05;;;;;;;5.00;2.20;;;;;;;;;;4983392;28;20030;-73
2023/01/26 02:50:31;;;;;;;3.25;1.92;;;;;;;;;;4982378;28;20022;-74
2023/01/26 02:52:57;;;;;;;5.18;1.80;;;;;;;;;;4984963;28;20640;-76
2023/01/26 02:55:29;;;;;;;3.63;1.80;;;;;;;;;;4985685;28;20483;-74
2023/01/26 02:58:03;;;;;;;3.70;1.70;;;;;;;;;;4984205;28;20034;-74
2023/01/26 03:00:30;;;;;;;2.75;1.90;;;;;;;;;;4980864;28;20121;-73
2023/01/26 03:02:58;;;;;;;3.20;1.83;;;;;;;;;;4985090;28;20018;-73
2023/01/26 03:05:25;;;;;;;2.95;2.00;;;;;;;;;;4982277;28;20054;-73
2023/01/26 03:07:51;;;;;;;4.18;1.73;;;;;;;;;;4982572;28;20022;-74
2023/01/26 03:10:17;;;;;;;4.10;1.73;;;;;;;;;;4980545;28;20030;-76
2023/01/26 03:12:44;;;;;;;3.80;1.90;;;;;;;;;;4987549;28;20026;-77
2023/01/26 03:27:25;;;;;;;2.80;1.90;;;;;;;;;;4978304;28;20049;-74
2023/01/26 03:29:12;;;;;;;4.05;1.50;;;;;;;;;;4983705;28;20455;-77
2023/01/26 03:31:39;;;;;;;1.80;1.30;;;;;;;;;;4980237;28;20942;-76
2023/01/26 03:34:05;;;;;;;2.63;1.50;;;;;;;;;;4979402;28;20475;-73
2023/01/26 03:36:31;;;;;;;4.30;1.95;;;;;;;;;;4977678;28;20507;-74
2023/01/26 03:38:57;;;;;;;2.10;1.77;;;;;;;;;;4981547;28;20487;-75
2023/01/26 03:57:52;;;;;;;2.85;2.10;;;;;;;;;;4976126;28;20546;-77
2023/01/26 04:00:18;;;;;;;2.78;1.48;;;;;;;;;;4979921;28;20065;-77
2023/01/26 04:08:23;;;;;;;1.00;0.70;;;;;;;;;;4980394;28;20050;-74
2023/01/26 04:10:53;;;;;;;1.65;0.60;;;;;;;;;;4970759;28;20034;-77
2023/01/26 04:21:35;;;;;;;0.68;0.52;;;;;;;;;;4971967;28;20053;-76
2023/01/26 04:24:08;;;;;;;2.80;0.55;;;;;;;;;;4976462;28;20565;-78
2023/01/26 04:26:34;;;;;;;1.52;0.60;;;;;;;;;;4974303;28;20034;-78
2023/01/26 04:29:04;;;;;;;2.47;0.93;;;;;;;;;;4974837;28;20031;-77
2023/01/26 04:31:31;;;;;;;1.02;0.75;;;;;;;;;;4970015;28;20269;-74
2023/01/26 04:33:57;;;;;;;2.60;0.90;;;;;;;;;;4977430;28;20026;-77
2023/01/26 04:36:23;;;;;;;1.17;0.80;;;;;;;;;;4968546;28;20105;-76
2023/01/26 04:38:49;;;;;;;1.20;1.00;;;;;;;;;;4977473;28;20045;-77
2023/01/26 04:41:16;;;;;;;2.78;1.23;;;;;;;;;;4975569;28;20042;-77
2023/01/26 04:43:42;;;;;;;2.28;1.40;;;;;;;;;;4975137;28;20034;-76
2023/01/26 04:46:08;;;;;;;2.65;1.20;;;;;;;;;;4977466;28;20031;-74
2023/01/26 04:48:34;;;;;;;2.13;1.00;;;;;;;;;;4977283;28;20033;-77
2023/01/26 04:51:02;;;;;;;0.85;0.70;;;;;;;;;;4974821;28;20024;-78
2023/01/26 04:53:28;;;;;;;1.90;0.80;;;;;;;;;;4975474;28;20031;-77
2023/01/26 04:55:55;;;;;;;4.80;1.00;;;;;;;;;;4980107;28;20022;-76
2023/01/26 04:58:22;;;;;;;1.52;0.88;;;;;;;;;;4974736;28;20034;-75
2023/01/26 05:00:51;;;;;;;2.03;1.02;;;;;;;;;;4976630;28;20116;-75
2023/01/26 05:03:17;;;;;;;1.13;0.80;;;;;;;;;;4977478;28;20038;-76
2023/01/26 05:05:44;;;;;;;2.30;0.80;;;;;;;;;;4978785;28;20118;-77
2023/01/26 05:08:10;;;;;;;3.17;0.95;;;;;;;;;;4977131;28;20037;-74
2023/01/26 05:10:36;;;;;;;1.70;0.77;;;;;;;;;;4975480;28;20019;-76
2023/01/26 05:13:02;;;;;;;2.78;1.00;;;;;;;;;;4978604;28;20328;-77
2023/01/26 05:15:28;;;;;;;1.38;1.00;;;;;;;;;;4978346;28;20015;-76
2023/01/26 05:17:58;;;;;;;1.75;1.00;;;;;;;;;;4975678;28;20363;-77
2023/01/26 05:20:24;;;;;;;1.95;1.02;;;;;;;;;;4977025;28;20026;-76
2023/01/26 05:22:50;;;;;;;1.63;1.00;;;;;;;;;;4970565;28;20034;-76
2023/01/26 05:25:16;;;;;;;1.90;1.00;;;;;;;;;;4974609;28;20608;-76
2023/01/26 05:27:42;;;;;;;1.58;0.77;;;;;;;;;;4972246;28;20445;-77
2023/01/26 05:30:09;;;;;;;1.23;0.90;;;;;;;;;;4973442;28;20022;-77
2023/01/26 05:32:35;;;;;;;2.30;0.85;;;;;;;;;;4972689;28;20424;-76
2023/01/26 05:35:01;;;;;;;2.53;1.05;;;;;;;;;;4975609;28;20018;-77
2023/01/26 05:37:28;;;;;;;1.20;1.00;;;;;;;;;;4975519;28;20508;-77
2023/01/26 05:39:54;;;;;;;2.25;1.10;;;;;;;;;;4974819;28;20046;-76
2023/01/26 05:42:21;;;;;;;2.60;0.90;;;;;;;;;;4977338;28;20716;-76
2023/01/26 05:44:47;;;;;;;1.27;0.70;;;;;;;;;;4972450;28;20105;-77
2023/01/26 05:47:13;;;;;;;1.00;0.80;;;;;;;;;;4973870;28;20583;-77
2023/01/26 05:49:44;;;;;;;2.30;0.95;;;;;;;;;;4977568;28;20629;-77
2023/01/26 05:52:11;;;;;;;1.27;0.93;;;;;;;;;;4975942;28;20460;-77
2023/01/26 05:54:38;;;;;;;3.42;1.10;;;;;;;;;;4974233;28;20035;-74
2023/01/26 05:57:04;;;;;;;3.47;0.90;;;;;;;;;;4973084;28;20026;-77
2023/01/26 05:59:30;;;;;;;1.80;0.80;;;;;;;;;;4973937;28;20038;-77
2023/01/26 06:01:57;;;;;;;2.35;0.73;;;;;;;;;;4978409;28;20030;-75
2023/01/26 06:04:23;;;;;;;1.63;1.15;;;;;;;;;;4976239;28;20045;-76
2023/01/26 06:06:52;;;;;;;3.72;1.20;;;;;;;;;;4973713;28;20026;-76
2023/01/26 06:09:19;;;;;;;2.30;0.93;;;;;;;;;;4970913;28;20033;-76
2023/01/26 06:11:45;;;;;;;2.78;0.90;;;;;;;;;;4973113;28;20041;-74
2023/01/26 06:14:11;;;;;;;0.88;0.70;;;;;;;;;;4974490;28;20033;-76
2023/01/26 06:16:37;;;;;;;3.78;0.80;;;;;;;;;;4971538;28;20022;-76
2023/01/26 06:19:04;;;;;;;2.00;0.80;;;;;;;;;;4973808;28;20034;-77
2023/01/26 06:21:33;;;;;;;2.58;1.02;;;;;;;;;;4981393;28;20072;-76
2023/01/26 06:23:59;;;;;;;1.27;0.85;;;;;;;;;;4973007;28;20050;-76
2023/01/26 06:26:25;;;;;;;2.10;0.73;;;;;;;;;;4973939;28;20033;-76
2023/01/26 06:28:52;;;;;;;2.88;0.90;;;;;;;;;;4974414;28;20042;-76
2023/01/26 06:31:19;;;;;;;1.85;0.70;;;;;;;;;;4973977;28;20030;-76
2023/01/26 06:33:45;;;;;;;1.55;0.80;;;;;;;;;;4969665;28;20026;-76
2023/01/26 06:36:12;;;;;;;0.63;0.60;;;;;;;;;;4975692;28;20015;-77
2023/01/26 06:38:38;;;;;;;2.15;0.80;;;;;;;;;;4974255;28;20038;-77
2023/01/26 06:41:06;;;;;;;1.25;0.80;;;;;;;;;;4973608;28;20027;-77
2023/01/26 06:43:33;;;;;;;2.17;1.05;;;;;;;;;;4971146;28;20130;-76
2023/01/26 06:45:59;;;;;;;1.83;0.93;;;;;;;;;;4973150;28;20031;-76
2023/01/26 06:48:29;;;;;;;3.58;1.00;;;;;;;;;;4975326;28;20034;-76
2023/01/26 06:50:56;;;;;;;2.10;1.30;;;;;;;;;;4970507;28;20048;-76
2023/01/26 06:53:30;;;;;;;3.00;1.77;;;;;;;;;;4977288;28;20034;-77
2023/01/26 06:55:56;;;;;;;4.47;1.70;;;;;;;;;;4973591;28;20031;-76
2023/01/26 06:58:22;;;;;;;2.30;1.90;;;;;;;;;;4972035;28;20038;-76
2023/01/26 07:00:48;;;;;;;2.88;1.60;;;;;;;;;;4976360;28;20031;-76
2023/01/26 07:03:14;;;;;;;2.92;1.73;;;;;;;;;;4973907;28;20026;-77
2023/01/26 07:05:40;;;;;;;9.70;2.40;;;;;;;;;;4973105;28;20061;-77
2023/01/26 07:08:07;;;;;;;3.08;2.22;;;;;;;;;;4969844;28;20026;-76
2023/01/26 07:10:34;;;;;;;8.05;3.00;;;;;;;;;;4972964;28;20023;-76
2023/01/26 07:13:00;;;;;;;3.33;2.20;;;;;;;;;;4970693;28;20178;-74
2023/01/26 07:15:26;;;;;;;3.15;1.80;;;;;;;;;;4972359;28;20085;-76
2023/01/26 07:17:53;;;;;;;2.25;1.50;;;;;;;;;;4971594;28;20018;-76
2023/01/26 07:20:19;;;;;;;4.18;2.28;;;;;;;;;;4971917;28;20030;-75
2023/01/26 07:22:45;;;;;;;3.25;2.50;;;;;;;;;;4971682;28;20569;-76
2023/01/26 07:25:11;;;;;;;3.25;2.33;;;;;;;;;;4968952;28;20509;-76
2023/01/26 07:27:38;;;;;;;5.43;2.10;;;;;;;;;;4979533;28;20049;-76
2023/01/26 07:30:04;;;;;;;2.50;1.85;;;;;;;;;;4978071;28;20035;-75
2023/01/26 07:32:31;;;;;;;4.07;1.58;;;;;;;;;;4980145;28;20026;-74
2023/01/26 07:34:57;;;;;;;6.35;2.78;;;;;;;;;;4973313;28;20432;-76
2023/01/26 07:37:26;;;;;;;12.13;2.75;;;;;;;;;;4981847;28;20102;-75
2023/01/26 07:39:53;;;;;;;3.17;2.50;;;;;;;;;;4979595;28;20713;-75
2023/01/26 07:42:19;;;;;;;7.13;3.00;;;;;;;;;;4976236;28;20050;-75
2023/01/26 07:44:45;;;;;;;4.43;3.30;;;;;;;;;;4976874;28;20037;-76
2023/01/26 07:47:11;;;;;;;7.78;2.92;;;;;;;;;;4977535;28;20662;-77
2023/01/26 07:49:37;;;;;;;6.32;3.33;;;;;;;;;;4975744;28;20030;-76
2023/01/26 07:52:04;;;;;;;6.40;3.75;;;;;;;;;;4978356;28;20434;-77
2023/01/26 07:54:30;;;;;;;5.05;3.10;;;;;;;;;;4976226;28;20617;-76
2023/01/26 07:56:57;;;;;;;3.97;2.65;;;;;;;;;;4978290;28;20764;-76
2023/01/26 07:59:23;;;;;;;4.63;2.55;;;;;;;;;;4980633;28;20606;-76
2023/01/26 08:01:50;;;;;;;6.00;2.38;;;;;;;;;;4975355;28;20054;-78
2023/01/26 08:04:17;;;;;;;6.57;3.35;;;;;;;;;;4976374;28;20029;-77
2023/01/26 08:06:43;;;;;;;4.80;2.90;;;;;;;;;;4979985;28;20034;-77
2023/01/26 08:09:09;;;;;;;6.63;3.65;;;;;;;;;;4976168;28;20093;-76
2023/01/26 08:11:35;;;;;;;4.90;2.67;;;;;;;;;;4975129;28;20026;-77
2023/01/26 08:14:02;;;;;;;8.50;2.67;;;;;;;;;;4975458;28;20023;-76
2023/01/26 08:16:28;;;;;;;4.30;2.72;;;;;;;;;;4980941;28;20207;-77
2023/01/26 08:18:54;;;;;;;3.60;2.25;;;;;;;;;;4972563;28;20034;-77
2023/01/26 08:21:20;;;;;;;3.70;2.20;;;;;;;;;;4980976;28;20080;-77
2023/01/26 08:23:50;;;;;;;4.38;1.98;;;;;;;;;;4974783;28;20022;-77
2023/01/26 08:26:17;;;;;;;2.75;1.90;;;;;;;;;;4976197;28;20058;-77
2023/01/26 08:28:43;;;;;;;4.63;2.13;;;;;;;;;;4974510;28;20022;-76
2023/01/26 08:31:11;;;;;;;5.60;2.05;;;;;;;;;;4980832;28;20010;-78
2023/01/26 08:33:37;;;;;;;3.83;1.80;;;;;;;;;;4977365;28;20018;-77
2023/01/26 08:36:06;;;;;;;4.80;1.67;;;;;;;;;;4977879;28;20045;-78
2023/01/26 08:38:32;;;;;;;3.10;1.67;;;;;;;;;;4973605;28;20027;-77
2023/01/26 08:40:59;;;;;;;2.70;1.52;;;;;;;;;;4977293;28;20495;-78
2023/01/26 08:43:25;;;;;;;4.07;1.20;;;;;;;;;;4977511;28;20030;-78
2023/01/26 08:45:51;;;;;;;1.80;1.20;;;;;;;;;;4977979;28;20022;-77
2023/01/26 08:48:18;;;;;;;3.40;1.70;;;;;;;;;;4980871;28;20022;-78
2023/01/26 08:50:44;;;;;;;2.13;1.52;;;;;;;;;;4979009;28;20101;-77
2023/01/26 08:53:10;;;;;;;4.28;1.33;;;;;;;;;;4981766;28;20703;-78
2023/01/26 08:55:36;;;;;;;3.53;1.60;;;;;;;;;;4981958;28;20018;-77
2023/01/26 08:58:03;;;;;;;2.38;1.55;;;;;;;;;;4980890;28;20029;-77
2023/01/26 09:00:30;;;;;;;3.25;1.40;;;;;;;;;;4980310;28;20085;-77
2023/01/26 09:03:03;;;;;;;3.30;1.63;;;;;;;;;;4980293;28;20109;-76
2023/01/26 09:05:33;;;;;;;4.72;1.52;;;;;;;;;;4980049;28;20057;-77
2023/01/26 09:07:59;;;;;;;1.90;1.20;;;;;;;;;;4976575;28;20031;-77
2023/01/26 09:10:26;;;;;;;2.70;1.17;;;;;;;;;;4980628;28;21021;-78
2023/01/26 09:12:52;;;;;;;3.95;1.50;;;;;;;;;;4974780;28;20030;-78
2023/01/26 09:15:18;;;;;;;4.05;1.50;;;;;;;;;;4979263;28;20029;-77
2023/01/26 09:17:47;;;;;;;2.25;1.00;;;;;;;;;;4980859;28;20081;-77
2023/01/26 09:20:13;;;;;;;1.63;1.02;;;;;;;;;;4977144;28;20030;-78
2023/01/26 09:22:40;;;;;;;3.22;1.10;;;;;;;;;;4980503;28;20096;-78
2023/01/26 09:25:06;;;;;;;3.13;1.10;;;;;;;;;;4978338;28;20046;-76
2023/01/26 09:27:32;;;;;;;6.68;1.05;;;;;;;;;;4978011;28;20802;-79
2023/01/26 09:29:59;;;;;;;1.55;0.90;;;;;;;;;;4977737;28;20109;-76
2023/01/26 09:32:25;;;;;;;3.38;1.10;;;;;;;;;;4979076;28;20022;-76
2023/01/26 09:34:51;;;;;;;1.70;0.82;;;;;;;;;;4974286;28;20113;-76
2023/01/26 09:37:17;;;;;;;1.30;0.82;;;;;;;;;;4975282;28;20019;-75
2023/01/26 09:39:43;;;;;;;2.40;1.00;;;;;;;;;;4974134;28;20038;-76
2023/01/26 09:42:17;;;;;;;2.85;0.95;;;;;;;;;;4978646;28;20085;-75
2023/01/26 09:44:57;;;;;;;1.15;0.80;;;;;;;;;;4977702;28;20611;-76
2023/01/26 09:47:31;;;;;;;2.42;0.80;;;;;;;;;;4976552;28;20022;-76
2023/01/26 09:50:03;;;;;;;2.40;0.90;;;;;;;;;;4971681;28;20018;-75
2023/01/26 09:52:32;;;;;;;1.98;1.08;;;;;;;;;;4980172;28;20034;-76
2023/01/26 09:55:00;;;;;;;3.92;1.35;;;;;;;;;;4973846;28;20031;-76
2023/01/26 09:57:36;;;;;;;3.63;1.40;;;;;;;;;;4976379;28;20105;-75
2023/01/26 10:00:11;;;;;;;1.83;1.00;;;;;;;;;;4973703;28;20052;-75
2023/01/26 10:02:55;;;;;;;4.18;1.05;;;;;;;;;;4978663;28;20011;-77
2023/01/26 10:05:21;;;;;;;1.88;1.00;;;;;;;;;;4978007;28;20050;-75
2023/01/26 10:07:48;;;;;;;1.92;1.10;;;;;;;;;;4976962;28;20026;-75
2023/01/26 10:10:26;;;;;;;4.25;1.10;;;;;;;;;;4973287;28;20034;-76
2023/01/26 10:12:52;;;;;;;2.63;1.20;;;;;;;;;;4977353;28;20027;-76
2023/01/26 10:15:37;;;;;;;2.47;1.20;;;;;;;;;;4971965;28;20045;-76
2023/01/26 10:18:05;;;;;;;2.08;1.00;;;;;;;;;;4976901;28;20056;-77
2023/01/26 10:20:32;;;;;;;1.67;1.00;;;;;;;;;;4975135;28;20026;-76
2023/01/26 10:23:06;;;;;;;1.55;0.70;;;;;;;;;;4974745;28;20026;-76
2023/01/26 10:25:39;;;;;;;3.05;1.10;;;;;;;;;;4976222;28;20423;-75
2023/01/26 10:28:19;;;;;;;1.85;1.10;;;;;;;;;;4973662;28;20094;-76
2023/01/26 10:30:47;;;;;;;1.50;0.90;;;;;;;;;;4974541;28;20022;-75
2023/01/26 10:33:27;;;;;;;2.75;1.10;;;;;;;;;;4972620;28;20491;-76
2023/01/26 10:35:56;;;;;;;1.33;0.90;;;;;;;;;;4974229;28;20479;-76
2023/01/26 10:38:38;;;;;;;2.97;0.90;;;;;;;;;;4975565;28;20031;-76
2023/01/26 10:41:15;;;;;;;2.22;1.13;;;;;;;;;;4976524;28;20022;-75
2023/01/26 10:43:42;;;;;;;2.33;0.93;;;;;;;;;;4974380;28;20095;-75
2023/01/26 10:46:27;;;;;;;1.90;1.10;;;;;;;;;;4972677;28;20491;-76
2023/01/26 10:48:58;;;;;;;1.88;1.25;;;;;;;;;;4972838;28;20030;-76
2023/01/26 10:51:26;;;;;;;3.65;1.20;;;;;;;;;;4977804;28;20030;-76
2023/01/26 10:54:12;;;;;;;2.95;1.15;;;;;;;;;;4978521;28;20027;-77
2023/01/26 10:56:50;;;;;;;2.42;1.17;;;;;;;;;;4977277;28;20049;-74
2023/01/26 10:59:25;;;;;;;1.23;0.90;;;;;;;;;;4978472;28;20118;-75
2023/01/26 11:01:54;;;;;;;1.83;1.10;;;;;;;;;;4974834;28;20030;-76
2023/01/26 11:04:20;;;;;;;1.88;1.00;;;;;;;;;;4976492;28;20023;-76
2023/01/26 11:06:47;;;;;;;3.55;1.17;;;;;;;;;;4982154;28;20360;-76
2023/01/26 11:09:19;;;;;;;2.70;1.40;;;;;;;;;;4979516;28;20045;-75
2023/01/26 11:11:56;;;;;;;2.40;1.30;;;;;;;;;;4976311;28;20014;-76
2023/01/26 11:14:23;;;;;;;1.80;1.10;;;;;;;;;;4983335;28;20030;-75
2023/01/26 11:16:55;;;;;;;1.63;1.15;;;;;;;;;;4979581;28;20430;-77
2023/01/26 11:19:24;;;;;;;3.45;1.42;;;;;;;;;;4969375;28;20074;-74
2023/01/26 11:21:55;;;;;;;2.20;1.13;;;;;;;;;;4974398;28;20041;-76
2023/01/26 11:24:39;;;;;;;9.32;1.98;;;;;;;;;;4974628;28;20018;-75
2023/01/26 11:27:26;;;;;;;2.20;0.90;;;;;;;;;;4975104;28;20492;-76
2023/01/26 11:29:59;;;;;;;1.85;0.98;;;;;;;;;;4973735;28;20030;-76
2023/01/26 11:32:25;;;;;;;;;;;;;;;;;;4972298;28;20032;-76
2023/01/26 11:35:00;;;;;;;1.27;0.80;;;;;;;;;;4976043;28;20493;-76
2023/01/26 11:37:45;;;;;;;2.92;1.02;;;;;;;;;;4976904;28;20018;-76
2023/01/26 11:40:29;;;;;;;1.70;0.95;;;;;;;;;;4976294;28;20030;-76
2023/01/26 11:43:14;;;;;;;1.30;0.70;;;;;;;;;;4982147;28;20069;-76
2023/01/26 11:45:57;;;;;;;1.48;0.85;;;;;;;;;;4980118;28;20023;-76
2023/01/26 11:48:36;;;;;;;0.70;0.40;;;;;;;;;;4974582;28;20041;-76
2023/01/26 11:51:20;;;;;;;1.00;0.63;;;;;;;;;;4980591;28;20022;-76
2023/01/26 11:54:01;;;;;;;0.70;0.52;;;;;;;;;;4977572;28;20069;-75
2023/01/26 11:56:27;;;;;;;0.50;0.40;;;;;;;;;;4971336;28;20031;-75
2023/01/26 11:59:03;;;;;;;1.70;0.40;;;;;;;;;;4980116;28;20034;-76
2023/01/26 12:01:36;;;;;;;0.98;0.40;;;;;;;;;;4977233;28;20034;-76
2023/01/26 12:04:02;;;;;;;;;;;;;;;;;;4977088;28;20498;-76
2023/01/26 12:06:28;;;;;;;1.13;0.50;;;;;;;;;;4974706;28;19917;-76
2023/01/26 12:08:59;;;;;;;1.33;0.70;;;;;;;;;;4979652;28;20561;-74
2023/01/26 12:11:31;;;;;;;0.60;0.50;;;;;;;;;;4974080;28;20117;-75
2023/01/26 12:14:07;;;;;;;1.92;0.50;;;;;;;;;;4971608;28;20066;-76
2023/01/26 12:16:42;;;;;;;1.30;0.50;;;;;;;;;;4977320;28;20026;-75
2023/01/26 12:19:32;;;;;;;1.90;0.50;;;;;;;;;;4977504;28;20676;-76
2023/01/26 12:22:02;;;;;;;1.80;0.50;;;;;;;;;;4973757;28;20030;-77
2023/01/26 12:24:55;;;;;;;1.98;0.90;;;;;;;;;;4974706;28;20049;-74
2023/01/26 12:27:37;;;;;;;0.95;0.55;;;;;;;;;;4968418;28;20097;-76
2023/01/26 12:30:19;;;;;;;1.75;0.52;;;;;;;;;;4963018;28;20031;-76
2023/01/26 12:32:45;;;;;;;0.85;0.57;;;;;;;;;;4978597;28;20030;-74
2023/01/26 12:35:13;;;;;;;1.00;0.60;;;;;;;;;;4974550;28;20022;-76
2023/01/26 12:37:42;;;;;;;0.85;0.55;;;;;;;;;;4958903;28;20042;-75
2023/01/26 12:40:35;;;;;;;1.10;0.70;;;;;;;;;;4976545;28;20046;-75
2023/01/26 12:43:07;;;;;;;7.20;0.90;;;;;;;;;;4960997;28;20581;-75
2023/01/26 12:45:38;;;;;;;1.88;0.95;;;;;;;;;;4972986;28;20598;-76
2023/01/26 12:48:22;;;;;;;3.17;0.88;;;;;;;;;;4973330;28;20068;-74
2023/01/26 12:50:57;;;;;;;1.23;0.82;;;;;;;;;;4975126;28;20023;-74
2023/01/26 12:53:32;;;;;;;1.83;0.73;;;;;;;;;;4971444;28;20129;-74
2023/01/26 12:56:08;;;;;;;1.48;0.82;;;;;;;;;;4975865;28;20023;-74
2023/01/26 12:58:37;;;;;;;1.13;0.60;;;;;;;;;;4978174;28;20085;-75
2023/01/26 13:01:06;;;;;;;1.65;0.80;;;;;;;;;;4978897;28;20022;-75
2023/01/26 13:03:37;;;;;;;3.30;1.08;;;;;;;;;;4974745;28;20066;-76
2023/01/26 13:06:09;;;;;;;1.60;0.70;;;;;;;;;;4978912;28;20046;-74
2023/01/26 13:08:35;;;;;;;1.92;0.90;;;;;;;;;;4978989;28;20037;-75
2023/01/26 13:11:06;;;;;;;1.73;1.02;;;;;;;;;;4977496;28;20514;-75
2023/01/26 13:13:52;;;;;;;1.33;0.90;;;;;;;;;;4972269;28;20088;-74
2023/01/26 13:16:18;;;;;;;1.88;0.85;;;;;;;;;;4971772;28;20030;-75
2023/01/26 13:18:51;;;;;;;1.58;1.02;;;;;;;;;;4974759;28;20118;-75
2023/01/26 13:21:36;;;;;;;1.95;1.00;;;;;;;;;;4974711;28;20026;-76
2023/01/26 13:24:02;;;;;;;2.08;1.15;;;;;;;;;;4992908;28;20141;-76
2023/01/26 13:26:31;;;;;;;1.17;0.70;;;;;;;;;;4973921;28;20032;-74
2023/01/26 13:29:16;;;;;;;2.80;0.98;;;;;;;;;;4978186;28;20073;-74
2023/01/26 13:31:42;;;;;;;1.85;1.05;;;;;;;;;;4977127;28;20058;-75
2023/01/26 13:34:09;;;;;;;1.92;1.02;;;;;;;;;;4975336;28;20536;-75
2023/01/26 13:36:36;;;;;;;3.22;1.10;;;;;;;;;;4976061;28;20022;-74
2023/01/26 13:39:12;;;;;;;5.88;0.90;;;;;;;;;;4977021;28;20034;-74
2023/01/26 13:41:43;;;;;;;3.05;1.00;;;;;;;;;;4975960;28;20022;-73
2023/01/26 13:44:33;;;;;;;5.47;1.05;;;;;;;;;;4975777;28;20032;-74
2023/01/26 13:47:07;;;;;;;1.30;0.70;;;;;;;;;;4974259;28;20100;-73
2023/01/26 13:49:40;;;;;;;21.38;3.40;;;;;;;;;;4974281;28;20098;-74
2023/01/26 13:52:17;;;;;;;4.47;2.60;;;;;;;;;;4970074;28;20069;-74
2023/01/26 13:54:43;;;;;;;4.45;1.67;;;;;;;;;;4978063;28;20018;-73
2023/01/26 13:57:10;;;;;;;2.55;1.10;;;;;;;;;;4975026;28;20054;-74
2023/01/26 13:59:48;;;;;;;4.05;1.55;;;;;;;;;;4975493;28;20041;-75
2023/01/26 14:02:29;;;;;;;1.95;0.88;;;;;;;;;;4976265;28;20025;-74
2023/01/26 14:04:57;;;;;;;1.10;0.75;;;;;;;;;;4974352;28;20708;-73
2023/01/26 14:07:43;;;;;;;3.38;1.00;;;;;;;;;;4978569;28;20019;-74
2023/01/26 14:10:15;;;;;;;2.25;0.80;;;;;;;;;;4973635;28;20088;-74
2023/01/26 14:12:42;;;;;;;2.65;0.88;;;;;;;;;;4971651;28;20430;-73
2023/01/26 14:15:28;;;;;;;1.60;0.60;;;;;;;;;;4974377;28;20026;-73
2023/01/26 14:17:59;;;;;;;1.40;0.85;;;;;;;;;;4973511;28;20029;-73
2023/01/26 14:20:29;;;;;;;4.38;1.38;;;;;;;;;;4974034;28;20549;-74
2023/01/26 14:23:05;;;;;;;2.92;1.10;;;;;;;;;;4981994;28;20098;-73
2023/01/26 14:25:31;;;;;;;1.52;1.20;;;;;;;;;;4976789;28;20026;-74
2023/01/26 14:27:57;;;;;;;2.97;1.52;;;;;;;;;;4975177;28;20076;-74
2023/01/26 14:30:28;;;;;;;2.35;1.40;;;;;;;;;;4970693;28;20077;-74
2023/01/26 14:33:03;;;;;;;1.53;1.00;;;;;;;;;;4972413;28;20027;-74
2023/01/26 14:35:29;;;;;;;2.40;1.30;;;;;;;;;;4972015;28;20031;-73
2023/01/26 14:38:11;;;;;;;2.67;1.50;;;;;;;;;;4972095;28;20045;-74
2023/01/26 14:40:44;;;;;;;2.53;1.20;;;;;;;;;;4974053;28;20033;-74
2023/01/26 14:43:11;;;;;;;4.05;1.20;;;;;;;;;;4973362;28;20248;-75
2023/01/26 14:45:38;;;;;;;5.53;1.20;;;;;;;;;;4974375;28;20025;-73
2023/01/26 14:48:07;;;;;;;3.55;1.10;;;;;;;;;;4971665;28;20106;-74
2023/01/26 14:50:33;;;;;;;3.60;1.00;;;;;;;;;;4975275;28;20031;-74
2023/01/26 14:53:02;;;;;;;2.03;1.00;;;;;;;;;;4976350;28;20034;-76
2023/01/26 14:55:30;;;;;;;2.55;1.70;;;;;;;;;;4973570;28;20022;-77
2023/01/26 14:57:57;;;;;;;2.40;1.45;;;;;;;;;;4969333;28;20015;-74
2023/01/26 15:00:24;;;;;;;3.05;1.10;;;;;;;;;;4971993;28;20065;-75
2023/01/26 15:02:52;;;;;;;2.45;1.40;;;;;;;;;;4973799;28;20045;-75
2023/01/26 15:05:19;;;;;;;2.90;1.25;;;;;;;;;;4971649;28;20051;-75
2023/01/26 15:07:45;;;;;;;1.77;1.00;;;;;;;;;;4968537;28;20439;-75
2023/01/26 15:10:26;;;;;;;2.80;1.05;;;;;;;;;;4977108;28;20641;-74
2023/01/26 15:12:57;;;;;;;1.92;1.02;;;;;;;;;;4974338;28;20073;-75
2023/01/26 15:15:27;;;;;;;3.00;1.13;;;;;;;;;;4973020;28;20026;-75
2023/01/26 15:18:00;;;;;;;1.35;0.90;;;;;;;;;;4974062;28;20088;-75
2023/01/26 15:20:26;;;;;;;3.47;1.30;;;;;;;;;;4977063;28;20085;-74
2023/01/26 15:22:53;;;;;;;3.47;0.95;;;;;;;;;;4973346;28;20546;-75
2023/01/26 15:25:27;;;;;;;2.05;1.20;;;;;;;;;;4973220;28;20382;-75
2023/01/26 15:27:53;;;;;;;4.90;2.30;;;;;;;;;;4978689;28;20050;-74
2023/01/26 15:30:29;;;;;;;4.15;1.40;;;;;;;;;;4972376;28;20037;-76
2023/01/26 15:32:56;;;;;;;2.47;1.45;;;;;;;;;;4974012;28;20126;-75
2023/01/26 15:35:24;;;;;;;2.90;1.20;;;;;;;;;;4974179;28;20028;-76
2023/01/26 15:37:59;;;;;;;2.45;1.00;;;;;;;;;;4973811;28;20037;-75